Flight Track Log - Related Links

Times and Time Zones

All times are in EDT time to prevent confusion due to time zone crossing. See the EJA277 flight status page for this flight to view local times or setup timezone preferences in your user account.

Time Position Orientation Groundspeed Altitude Reporting Facility
EDT Latitude Longitude Course Direction KTS MPH feet Rate Location/Type
Fri 10:17:24 AM 41.0167 -73.7167 298° West 217 250 3,000  Level New York TRACON
Fri 10:18:25 AM 41.0500 -73.8000 298° West 240 276 6,300 1,890 Climbing New York TRACON
Fri 10:19:31 AM 41.0500 -73.9000 270° West 297 342 7,000 333 Climbing New York TRACON
Fri 10:20:31 AM 41.0333 -74.0000 258° West 296 341 7,000 950 Level New York TRACON
Fri 10:21:31 AM 41.0000 -74.1167 249° West 310 357 8,900 2,100 Climbing New York TRACON
Fri 10:22:31 AM 40.9833 -74.2333 259° West 334 384 11,200 1,988 Climbing New York TRACON
Fri 10:24:23 AM 40.9703 -74.4700 266° West 411 473 14,600 1,953 Climbing New York Center
Fri 10:25:23 AM 40.9592 -74.6206 264° West 401 461 16,800 1,220 Climbing New York Center
Fri 10:26:21 AM 40.9486 -74.7572 264° West 401 461 17,000 508 Climbing New York Center
Fri 10:27:21 AM 40.9300 -74.9292 262° West 426 490 17,800 1,190 Climbing New York Center
Fri 10:28:22 AM 40.8997 -75.0756 255° West 428 493 19,400 1,800 Climbing New York Center
Fri 10:29:21 AM 40.8714 -75.2247 256° West 423 487 21,400 1,750 Climbing New York Center
Fri 10:30:22 AM 40.8456 -75.3547 255° West 418 481 22,900 1,279 Climbing New York Center
Fri 10:31:23 AM 40.8147 -75.5036 255° West 418 481 24,000 1,289 Climbing New York Center
Fri 10:32:23 AM 40.7856 -75.6578 256° West 425 489 25,500 1,400 Climbing New York Center
Fri 10:33:23 AM 40.7492 -75.8250 254° West 430 495 26,800 1,729 Climbing New York Center
Fri 10:34:21 AM 40.7203 -75.9681 255° West 425 489 28,900 1,916 Climbing New York Center
Fri 10:35:22 AM 40.6908 -76.1136 255° West 425 489 30,600 1,574 Climbing New York Center
Fri 10:36:23 AM 40.6672 -76.2622 258° West 425 489 32,100 1,289 Climbing New York Center
Fri 10:37:23 AM 40.6831 -76.3731 281° West 401 461 33,200 1,373 Climbing New York Center
Fri 10:38:21 AM 40.7117 -76.5561 282° West 406 467 34,800 1,361 Climbing New York Center
Fri 10:39:22 AM 40.7336 -76.7031 281° West 412 474 35,900 1,033 Climbing New York Center
Fri 10:40:23 AM 40.7531 -76.8528 280° West 412 474 36,900 992 Climbing New York Center
Fri 10:41:23 AM 40.7764 -77.0028 282° West 412 474 37,900 559 Climbing New York Center
Fri 10:42:21 AM 40.7994 -77.1586 281° West 417 480 38,000 50 Climbing New York Center
Fri 10:43:22 AM 40.8217 -77.3225 280° West 436 502 38,000  Level New York Center
Fri 10:44:22 AM 40.8461 -77.4811 282° West 436 502 38,000  Level New York Center
Fri 10:46:36 AM 40.8956 -77.8553 280° West 469 540 38,000 124 Level Cleveland Center
Fri 10:47:36 AM 40.9203 -78.0219 281° West 464 534 38,400 450 Climbing Cleveland Center
Fri 10:48:36 AM 40.9383 -78.1836 278° West 464 534 38,900 450 Climbing Cleveland Center
Fri 10:49:36 AM 40.9581 -78.3311 280° West 464 534 39,300 500 Climbing Cleveland Center
Fri 10:50:36 AM 40.9822 -78.5092 280° West 464 534 39,900 350 Climbing Cleveland Center
Fri 10:51:36 AM 41.0017 -78.6708 279° West 464 534 40,000 50 Climbing Cleveland Center
Fri 10:52:36 AM 41.0211 -78.8356 279° West 459 528 40,000  Level Cleveland Center
Fri 10:53:36 AM 41.0403 -78.9975 279° West 459 528 40,000  Level Cleveland Center
Fri 10:54:36 AM 41.0589 -79.1594 279° West 459 528 40,000  Level Cleveland Center
Fri 10:55:36 AM 41.0756 -79.3244 278° West 459 528 40,000  Level Cleveland Center
Fri 10:56:36 AM 41.0958 -79.4894 279° West 459 528 40,000  Level Cleveland Center
Fri 10:57:36 AM 41.1142 -79.6544 278° West 459 528 40,000  Level Cleveland Center
Fri 10:58:36 AM 41.1275 -79.7836 278° West 459 528 40,000  Level Cleveland Center
Fri 10:59:36 AM 41.1456 -79.9819 277° West 465 535 40,000  Level Cleveland Center
Fri 11:00:36 AM 41.1650 -80.1444 279° West 460 529 40,000  Level Cleveland Center
Fri 11:01:36 AM 41.1822 -80.3100 278° West 460 529 40,000  Level Cleveland Center
Fri 11:02:36 AM 41.1969 -80.4561 278° West 460 529 40,000  Level Cleveland Center
Fri 11:03:36 AM 41.2136 -80.6217 278° West 460 529 40,000  Level Cleveland Center
Fri 11:04:36 AM 41.2303 -80.7847 278° West 460 529 40,000  Level Cleveland Center
Fri 11:05:36 AM 41.2486 -80.9642 278° West 460 529 40,000  Level Cleveland Center
Fri 11:06:36 AM 41.2625 -81.1272 277° West 455 524 40,000  Level Cleveland Center
Fri 11:07:36 AM 41.2783 -81.2878 278° West 449 517 40,000  Level Cleveland Center
Fri 11:08:36 AM 41.2981 -81.4483 279° West 449 517 40,000  Level Cleveland Center
Fri 11:09:36 AM 41.3111 -81.6114 276° West 449 517 40,000  Level Cleveland Center
Fri 11:10:36 AM 41.3283 -81.7747 278° West 449 517 40,000  Level Cleveland Center
Fri 11:11:36 AM 41.3411 -81.9411 276° West 449 517 40,000  Level Cleveland Center
Fri 11:12:36 AM 41.3558 -82.1044 277° West 449 517 40,000  Level Cleveland Center
Fri 11:13:36 AM 41.3639 -82.2681 274° West 449 517 40,000  Level Cleveland Center
Fri 11:14:36 AM 41.3739 -82.4344 275° West 442 509 40,000  Level Cleveland Center
Fri 11:15:36 AM 41.3836 -82.5978 275° West 442 509 40,000  Level Cleveland Center
Fri 11:16:36 AM 41.3908 -82.7614 273° West 442 509 40,000  Level Cleveland Center
Fri 11:17:36 AM 41.4003 -82.9250 274° West 447 514 40,000  Level Cleveland Center
Fri 11:18:36 AM 41.4092 -83.0914 274° West 452 520 40,000  Level Cleveland Center
Fri 11:19:36 AM 41.4142 -83.2386 273° West 452 520 40,000  Level Cleveland Center
Fri 11:20:36 AM 41.4228 -83.4050 274° West 452 520 40,000  Level Cleveland Center
Fri 11:21:36 AM 41.4331 -83.5717 275° West 452 520 40,000  Level Cleveland Center
Fri 11:22:36 AM 41.4392 -83.7381 273° West 452 520 40,000  Level Cleveland Center
Fri 11:23:36 AM 41.4469 -83.9019 274° West 452 520 40,000  Level Cleveland Center
Fri 11:24:36 AM 41.4544 -84.0714 273° West 457 526 40,000  Level Cleveland Center
Fri 11:25:36 AM 41.4617 -84.2381 273° West 462 532 40,000  Level Cleveland Center
Fri 11:27:31 AM 41.4775 -84.5572 274° West 450 518 40,000  Level Chicago Center
Fri 11:28:33 AM 41.4844 -84.7233 273° West 450 518 40,000  Level Chicago Center
Fri 11:29:35 AM 41.4903 -84.8886 273° West 448 516 40,000  Level Chicago Center
Fri 11:30:36 AM 41.4956 -85.0553 272° West 449 517 40,000  Level Chicago Center
Fri 11:31:38 AM 41.5008 -85.2244 272° West 451 519 40,000  Level Chicago Center
Fri 11:32:40 AM 41.5047 -85.3958 272° West 453 521 40,000  Level Chicago Center
Fri 11:33:41 AM 41.5119 -85.5683 273° West 453 521 40,000  Level Chicago Center
Fri 11:34:43 AM 41.5172 -85.7697 272° West 451 519 40,000  Level Chicago Center
Fri 11:35:45 AM 41.5219 -85.9364 272° West 451 519 40,000  Level Chicago Center
Fri 11:36:47 AM 41.5264 -86.1058 272° West 455 524 40,000  Level Chicago Center
Fri 11:37:48 AM 41.5292 -86.2714 271° West 450 518 40,000  Level Chicago Center
Fri 11:38:51 AM 41.5314 -86.4369 271° West 448 516 40,000  Level Chicago Center
Fri 11:39:52 AM 41.5344 -86.6031 271° West 448 516 40,000  Level Chicago Center
Fri 11:40:54 AM 41.5361 -86.7969 271° West 440 506 40,000  Level Chicago Center
Fri 11:41:56 AM 41.5375 -86.9617 271° West 442 509 40,000  Level Chicago Center
Fri 11:42:58 AM 41.5400 -87.1269 271° West 447 514 40,000  Level Chicago Center
Fri 11:43:59 AM 41.5428 -87.2922 271° West 448 516 40,000  Level Chicago Center
Fri 11:45:01 AM 41.5433 -87.4539 270° West 440 506 40,000  Level Chicago Center
Fri 11:46:03 AM 41.5447 -87.6183 271° West 442 509 40,000  Level Chicago Center
Fri 11:47:05 AM 41.5458 -87.8128 271° West 440 506 40,000  Level Chicago Center
Fri 11:48:06 AM 41.5461 -87.9750 270° West 442 509 40,000  Level Chicago Center
Fri 11:49:08 AM 41.5464 -88.1358 270° West 448 516 40,000  Level Chicago Center
Fri 11:50:10 AM 41.5464 -88.3003 270° West 452 520 40,000  Level Chicago Center
Fri 11:51:11 AM 41.5467 -88.4997 270° West 452 520 40,000  Level Chicago Center
Fri 11:52:13 AM 41.5472 -88.6658 270° West 453 521 40,000  Level Chicago Center
Fri 11:53:15 AM 41.5481 -88.8336 270° West 455 524 40,000  Level Chicago Center
Fri 11:54:16 AM 41.5481 -89.0019 270° West 458 527 40,000  Level Chicago Center
Fri 11:55:18 AM 41.5475 -89.1697 270° West 456 525 40,000  Level Chicago Center
Fri 11:56:20 AM 41.5492 -89.3397 271° West 460 529 40,000  Level Chicago Center
Fri 11:57:21 AM 41.5483 -89.5053 270° West 449 517 40,000  Level Chicago Center
Fri 11:58:23 AM 41.5472 -89.7064 270° West 454 522 40,000  Level Chicago Center
Fri 11:59:24 AM 41.5464 -89.8719 270° West 457 526 40,000  Level Chicago Center
Fri 12:00:26 PM 41.5456 -90.0428 270° West 463 533 40,000  Level Chicago Center
Fri 12:01:28 PM 41.5436 -90.2125 269° West 461 531 40,000  Level Chicago Center
Fri 12:02:29 PM 41.5408 -90.3875 269° West 472 543 40,000  Level Chicago Center
Fri 12:03:31 PM 41.5383 -90.5586 269° West 464 534 40,000  Level Chicago Center
Fri 12:04:32 PM 41.5358 -90.7567 269° West 459 528 40,000  Level Chicago Center
Fri 12:05:34 PM 41.5333 -90.9267 269° West 459 528 40,000  Level Chicago Center
Fri 12:06:36 PM 41.5306 -91.0967 269° West 459 528 40,000  Level Chicago Center
Fri 12:07:37 PM 41.5269 -91.2683 268° West 462 532 40,000  Level Chicago Center
Fri 12:08:39 PM 41.5233 -91.4381 268° West 461 531 40,000  Level Chicago Center
Fri 12:09:40 PM 41.5192 -91.6089 268° West 461 531 40,000  Level Chicago Center
Fri 12:10:42 PM 41.5144 -91.7772 268° West 458 527 40,000  Level Chicago Center
Fri 12:11:44 PM 41.5078 -91.9786 268° West 456 525 40,000  Level Chicago Center
Fri 12:12:45 PM 41.5014 -92.1475 267° West 455 524 40,000  Level Chicago Center
Fri 12:13:47 PM 41.4944 -92.3164 267° West 458 527 40,000  Level Chicago Center
Fri 12:14:49 PM 41.4886 -92.4797 267° West 460 529 40,000 -98 Level Chicago Center
Fri 12:15:50 PM 41.4817 -92.6494 267° West 462 532 39,800 -927 Descending Chicago Center
Fri 12:16:52 PM 41.4736 -92.8472 267° West 452 520 38,100 -871 Descending Chicago Center
Fri 12:17:54 PM 41.4667 -93.0181 267° West 463 533 38,000 -1,024 Descending Chicago Center
Fri 12:18:55 PM 41.4586 -93.1900 266° West 469 540 36,000 -1,902 Descending Chicago Center
Fri 12:19:57 PM 41.4506 -93.3653 267° West 477 549 34,100 -968 Descending Chicago Center
Fri 12:20:59 PM 41.4417 -93.5436 266° West 486 559 34,000 -488 Descending Chicago Center
Fri 12:22:00 PM 41.4419 -93.7514 270° West 473 544 33,100 -1,659 Descending Chicago Center
Fri 12:23:02 PM 41.4533 -93.9372 275° West 509 586 30,600 -2,373 Descending Chicago Center
Fri 12:24:14 PM 41.4672 -94.1600 275° West 512 589 27,800 -2,346 Descending Minneapolis Center
Fri 12:25:15 PM 41.4733 -94.3494 273° West 515 593 25,400 -2,341 Descending Minneapolis Center
Fri 12:26:17 PM 41.4814 -94.5403 273° West 517 595 23,000 -2,419 Descending Minneapolis Center
Fri 12:27:19 PM 41.4931 -94.7292 275° West 514 592 20,400 -2,462 Descending Minneapolis Center
Fri 12:28:14 PM 41.5161 -94.9247 279° West 478 550 18,200 -1,805 Descending Minneapolis Center
Fri 12:29:22 PM 41.5125 -95.0783 268° West 473 544 16,700 -1,628 Descending Minneapolis Center
Fri 12:30:23 PM 41.5050 -95.2375 266° West 446 513 14,700 -2,146 Descending Minneapolis Center
Fri 12:31:25 PM 41.4742 -95.3958 255° West 388 447 12,300 -2,200 Descending Minneapolis Center
Fri 12:32:23 PM 41.4539 -95.5172 257° West 310 357 10,300 -2,089 Descending Minneapolis Center
Fri 12:33:17 PM 41.4269 -95.6150 250° West 302 348 8,400 -1,670 Descending Minneapolis Center
Fri 12:34:18 PM 41.3964 -95.7161 248° West 293 337 7,100 -689 Descending Minneapolis Center
Fri 12:35:19 PM 41.3397 -95.7783 220° Southwest 304 350 7,000 -787 Descending Minneapolis Center
Fri 12:36:20 PM 41.2728 -95.7169 145° Southeast 289 333 5,500 -992 Descending Minneapolis Center
Fri 12:37:20 PM 41.2206 -95.6567 139° Southeast 234 269 5,000 -395 Descending Minneapolis Center
Fri 12:37:36 PM 41.2114 -95.6447 136° Southeast 276 318 5,000 -1,475 Level Minneapolis Center
Fri 12:38:21 PM 41.1617 -95.6803 208° Southwest 259 298 3,500 -1,770 Descending Minneapolis Center
Fri 12:38:37 PM 41.1456 -95.6989 221° Southwest 264 304 3,200 -448 Descending Minneapolis Center
Fri 12:39:28 PM 41.1472 -95.7483 273° West 170 196 3,000 -107 Descending Minneapolis Center
Fri 12:40:29 PM 41.1872 -95.7825 327° Northwest 162 186 3,000 -189 Level Minneapolis Center
Fri 12:41:35 PM 41.2342 -95.8267 325° Northwest 177 204 2,600 -545 Descending Minneapolis Center
Fri 12:42:30 PM 41.2611 -95.8542 323° Northwest 142 163 1,900 -593 Descending Minneapolis Center
Fri 12:42:56 PM 41.2672 -95.8567 343° North 169 194 1,800 -614 Descending Minneapolis Center
Fri 12:43:58 PM 41.2978 -95.8850 325° Northwest 131 151 1,000 -774 Descending Minneapolis Center

Login

Don't have an account? Register now (free) for customized features, flight alerts, and more!